sensor_id;sensor_type;location;lat;lon;timestamp;P1;P2;P0
56069;PMS5003;41944;52.078;-0.058;2024-01-06T00:00:21;25;21;
56069;PMS5003;41944;52.078;-0.058;2024-01-06T00:02:48;24;20;
56069;PMS5003;41944;52.078;-0.058;2024-01-06T00:05:15;20;19;
56069;PMS5003;41944;52.078;-0.058;2024-01-06T00:07:43;22;18;
56069;PMS5003;41944;52.078;-0.058;2024-01-06T00:10:10;22;20;
56069;PMS5003;41944;52.078;-0.058;2024-01-06T00:12:37;17;17;
56069;PMS5003;41944;52.078;-0.058;2024-01-06T00:15:05;18;18;
56069;PMS5003;41944;52.078;-0.058;2024-01-06T00:17:33;18;17;
56069;PMS5003;41944;52.078;-0.058;2024-01-06T00:20:00;23;22;
56069;PMS5003;41944;52.078;-0.058;2024-01-06T00:22:27;21;19;
56069;PMS5003;41944;52.078;-0.058;2024-01-06T00:24:54;19;19;
56069;PMS5003;41944;52.078;-0.058;2024-01-06T00:27:22;18;15;
56069;PMS5003;41944;52.078;-0.058;2024-01-06T00:29:48;27;20;
56069;PMS5003;41944;52.078;-0.058;2024-01-06T00:32:15;18;18;
56069;PMS5003;41944;52.078;-0.058;2024-01-06T00:34:42;21;19;
56069;PMS5003;41944;52.078;-0.058;2024-01-06T00:37:10;23;17;
56069;PMS5003;41944;52.078;-0.058;2024-01-06T00:39:37;20;17;
56069;PMS5003;41944;52.078;-0.058;2024-01-06T00:42:04;21;21;
56069;PMS5003;41944;52.078;-0.058;2024-01-06T00:44:32;21;19;
56069;PMS5003;41944;52.078;-0.058;2024-01-06T00:47:00;20;19;
56069;PMS5003;41944;52.078;-0.058;2024-01-06T00:49:26;18;18;
56069;PMS5003;41944;52.078;-0.058;2024-01-06T00:51:54;20;19;
56069;PMS5003;41944;52.078;-0.058;2024-01-06T00:54:20;20;19;
56069;PMS5003;41944;52.078;-0.058;2024-01-06T00:56:47;19;19;
56069;PMS5003;41944;52.078;-0.058;2024-01-06T00:59:15;20;18;
56069;PMS5003;41944;52.078;-0.058;2024-01-06T01:01:42;22;16;
56069;PMS5003;41944;52.078;-0.058;2024-01-06T01:04:09;22;19;
56069;PMS5003;41944;52.078;-0.058;2024-01-06T01:06:36;24;20;
56069;PMS5003;41944;52.078;-0.058;2024-01-06T01:09:04;20;17;
56069;PMS5003;41944;52.078;-0.058;2024-01-06T01:11:31;24;22;
56069;PMS5003;41944;52.078;-0.058;2024-01-06T01:13:58;18;14;
56069;PMS5003;41944;52.078;-0.058;2024-01-06T01:16:26;18;17;
56069;PMS5003;41944;52.078;-0.058;2024-01-06T01:18:53;17;15;
56069;PMS5003;41944;52.078;-0.058;2024-01-06T01:21:20;19;16;
56069;PMS5003;41944;52.078;-0.058;2024-01-06T01:23:47;17;17;
56069;PMS5003;41944;52.078;-0.058;2024-01-06T01:26:14;18;16;
56069;PMS5003;41944;52.078;-0.058;2024-01-06T01:28:41;21;17;
56069;PMS5003;41944;52.078;-0.058;2024-01-06T01:31:09;18;14;
56069;PMS5003;41944;52.078;-0.058;2024-01-06T01:33:36;23;20;
56069;PMS5003;41944;52.078;-0.058;2024-01-06T01:36:04;22;19;
56069;PMS5003;41944;52.078;-0.058;2024-01-06T01:38:31;21;19;
56069;PMS5003;41944;52.078;-0.058;2024-01-06T01:40:58;19;18;
56069;PMS5003;41944;52.078;-0.058;2024-01-06T01:43:26;20;15;
56069;PMS5003;41944;52.078;-0.058;2024-01-06T01:45:53;17;15;
56069;PMS5003;41944;52.078;-0.058;2024-01-06T01:48:22;22;20;
56069;PMS5003;41944;52.078;-0.058;2024-01-06T01:50:50;15;13;
56069;PMS5003;41944;52.078;-0.058;2024-01-06T01:53:20;16;16;
56069;PMS5003;41944;52.078;-0.058;2024-01-06T01:55:47;16;14;
56069;PMS5003;41944;52.078;-0.058;2024-01-06T01:58:15;15;14;
56069;PMS5003;41944;52.078;-0.058;2024-01-06T02:00:43;12;11;
56069;PMS5003;41944;52.078;-0.058;2024-01-06T02:03:10;17;12;
56069;PMS5003;41944;52.078;-0.058;2024-01-06T02:05:39;17;13;
56069;PMS5003;41944;52.078;-0.058;2024-01-06T02:08:06;13;13;
56069;PMS5003;41944;52.078;-0.058;2024-01-06T02:10:33;14;12;
56069;PMS5003;41944;52.078;-0.058;2024-01-06T02:13:07;18;14;
56069;PMS5003;41944;52.078;-0.058;2024-01-06T02:15:35;16;12;
56069;PMS5003;41944;52.078;-0.058;2024-01-06T02:18:02;11;10;
56069;PMS5003;41944;52.078;-0.058;2024-01-06T02:20:30;11;9;
56069;PMS5003;41944;52.078;-0.058;2024-01-06T02:22:57;13;13;
56069;PMS5003;41944;52.078;-0.058;2024-01-06T02:25:26;13;11;
56069;PMS5003;41944;52.078;-0.058;2024-01-06T02:27:54;12;9;
56069;PMS5003;41944;52.078;-0.058;2024-01-06T02:30:21;10;10;
56069;PMS5003;41944;52.078;-0.058;2024-01-06T02:32:48;9;9;
56069;PMS5003;41944;52.078;-0.058;2024-01-06T02:35:14;14;9;
56069;PMS5003;41944;52.078;-0.058;2024-01-06T02:37:41;10;10;
56069;PMS5003;41944;52.078;-0.058;2024-01-06T02:40:09;14;10;
56069;PMS5003;41944;52.078;-0.058;2024-01-06T02:42:37;7;6;
56069;PMS5003;41944;52.078;-0.058;2024-01-06T02:45:04;9;9;
56069;PMS5003;41944;52.078;-0.058;2024-01-06T02:47:32;10;8;
56069;PMS5003;41944;52.078;-0.058;2024-01-06T02:50:00;10;8;
56069;PMS5003;41944;52.078;-0.058;2024-01-06T02:52:27;9;9;
56069;PMS5003;41944;52.078;-0.058;2024-01-06T02:54:54;13;9;
56069;PMS5003;41944;52.078;-0.058;2024-01-06T02:57:21;9;8;
56069;PMS5003;41944;52.078;-0.058;2024-01-06T02:59:47;10;8;
56069;PMS5003;41944;52.078;-0.058;2024-01-06T03:02:14;10;8;
56069;PMS5003;41944;52.078;-0.058;2024-01-06T03:04:41;9;9;
56069;PMS5003;41944;52.078;-0.058;2024-01-06T03:07:08;11;9;
56069;PMS5003;41944;52.078;-0.058;2024-01-06T03:09:35;11;11;
56069;PMS5003;41944;52.078;-0.058;2024-01-06T03:12:02;10;9;
56069;PMS5003;41944;52.078;-0.058;2024-01-06T03:14:29;9;7;
56069;PMS5003;41944;52.078;-0.058;2024-01-06T03:16:56;11;9;
56069;PMS5003;41944;52.078;-0.058;2024-01-06T03:19:24;9;9;
56069;PMS5003;41944;52.078;-0.058;2024-01-06T03:21:51;13;9;
56069;PMS5003;41944;52.078;-0.058;2024-01-06T03:24:18;10;8;
56069;PMS5003;41944;52.078;-0.058;2024-01-06T03:26:45;7;7;
56069;PMS5003;41944;52.078;-0.058;2024-01-06T03:29:12;10;8;
56069;PMS5003;41944;52.078;-0.058;2024-01-06T03:31:41;8;7;
56069;PMS5003;41944;52.078;-0.058;2024-01-06T03:34:09;10;9;
56069;PMS5003;41944;52.078;-0.058;2024-01-06T03:36:36;11;10;
56069;PMS5003;41944;52.078;-0.058;2024-01-06T03:39:02;8;7;
56069;PMS5003;41944;52.078;-0.058;2024-01-06T03:41:29;12;9;
56069;PMS5003;41944;52.078;-0.058;2024-01-06T03:43:56;12;7;
56069;PMS5003;41944;52.078;-0.058;2024-01-06T03:46:23;8;7;
56069;PMS5003;41944;52.078;-0.058;2024-01-06T03:48:51;6;6;
56069;PMS5003;41944;52.078;-0.058;2024-01-06T03:51:18;10;8;
56069;PMS5003;41944;52.078;-0.058;2024-01-06T03:53:45;5;5;
56069;PMS5003;41944;52.078;-0.058;2024-01-06T03:56:12;12;8;
56069;PMS5003;41944;52.078;-0.058;2024-01-06T03:58:39;10;10;
56069;PMS5003;41944;52.078;-0.058;2024-01-06T04:01:06;9;9;
56069;PMS5003;41944;52.078;-0.058;2024-01-06T04:03:33;7;7;
56069;PMS5003;41944;52.078;-0.058;2024-01-06T04:06:00;8;8;
56069;PMS5003;41944;52.078;-0.058;2024-01-06T04:08:28;8;7;
56069;PMS5003;41944;52.078;-0.058;2024-01-06T04:10:54;6;6;
56069;PMS5003;41944;52.078;-0.058;2024-01-06T04:13:21;7;6;
56069;PMS5003;41944;52.078;-0.058;2024-01-06T04:15:48;11;9;
56069;PMS5003;41944;52.078;-0.058;2024-01-06T04:18:15;9;7;
56069;PMS5003;41944;52.078;-0.058;2024-01-06T04:20:42;6;6;
56069;PMS5003;41944;52.078;-0.058;2024-01-06T04:23:09;12;9;
56069;PMS5003;41944;52.078;-0.058;2024-01-06T04:25:36;8;8;
56069;PMS5003;41944;52.078;-0.058;2024-01-06T04:28:03;8;8;
56069;PMS5003;41944;52.078;-0.058;2024-01-06T04:30:30;10;8;
56069;PMS5003;41944;52.078;-0.058;2024-01-06T04:32:57;5;5;
56069;PMS5003;41944;52.078;-0.058;2024-01-06T04:35:24;9;7;
56069;PMS5003;41944;52.078;-0.058;2024-01-06T04:37:52;11;8;
56069;PMS5003;41944;52.078;-0.058;2024-01-06T04:40:19;6;6;
56069;PMS5003;41944;52.078;-0.058;2024-01-06T04:42:46;9;6;
56069;PMS5003;41944;52.078;-0.058;2024-01-06T04:45:13;8;6;
56069;PMS5003;41944;52.078;-0.058;2024-01-06T04:47:40;8;7;
56069;PMS5003;41944;52.078;-0.058;2024-01-06T04:50:07;7;7;
56069;PMS5003;41944;52.078;-0.058;2024-01-06T04:52:34;7;7;
56069;PMS5003;41944;52.078;-0.058;2024-01-06T04:55:01;11;6;
56069;PMS5003;41944;52.078;-0.058;2024-01-06T04:57:29;10;6;
56069;PMS5003;41944;52.078;-0.058;2024-01-06T04:59:56;11;10;
56069;PMS5003;41944;52.078;-0.058;2024-01-06T05:02:23;9;8;
56069;PMS5003;41944;52.078;-0.058;2024-01-06T05:04:50;7;6;
56069;PMS5003;41944;52.078;-0.058;2024-01-06T05:07:17;9;6;
56069;PMS5003;41944;52.078;-0.058;2024-01-06T05:09:43;6;6;
56069;PMS5003;41944;52.078;-0.058;2024-01-06T05:12:10;7;7;
56069;PMS5003;41944;52.078;-0.058;2024-01-06T05:14:37;9;7;
56069;PMS5003;41944;52.078;-0.058;2024-01-06T05:17:04;7;7;
56069;PMS5003;41944;52.078;-0.058;2024-01-06T05:19:31;9;8;
56069;PMS5003;41944;52.078;-0.058;2024-01-06T05:21:59;10;8;
56069;PMS5003;41944;52.078;-0.058;2024-01-06T05:24:27;11;7;
56069;PMS5003;41944;52.078;-0.058;2024-01-06T05:26:54;7;7;
56069;PMS5003;41944;52.078;-0.058;2024-01-06T05:29:21;13;10;
56069;PMS5003;41944;52.078;-0.058;2024-01-06T05:31:48;5;5;
56069;PMS5003;41944;52.078;-0.058;2024-01-06T05:34:14;12;9;
56069;PMS5003;41944;52.078;-0.058;2024-01-06T05:36:42;8;8;
56069;PMS5003;41944;52.078;-0.058;2024-01-06T05:39:09;8;8;
56069;PMS5003;41944;52.078;-0.058;2024-01-06T05:41:37;8;8;
56069;PMS5003;41944;52.078;-0.058;2024-01-06T05:44:05;11;7;
56069;PMS5003;41944;52.078;-0.058;2024-01-06T05:46:33;11;9;
56069;PMS5003;41944;52.078;-0.058;2024-01-06T05:49:00;10;8;
56069;PMS5003;41944;52.078;-0.058;2024-01-06T05:51:27;9;6;
56069;PMS5003;41944;52.078;-0.058;2024-01-06T05:53:54;5;5;
56069;PMS5003;41944;52.078;-0.058;2024-01-06T05:56:22;8;8;
56069;PMS5003;41944;52.078;-0.058;2024-01-06T05:58:49;7;6;
56069;PMS5003;41944;52.078;-0.058;2024-01-06T06:01:17;10;7;
56069;PMS5003;41944;52.078;-0.058;2024-01-06T06:03:43;8;7;
56069;PMS5003;41944;52.078;-0.058;2024-01-06T06:06:10;11;7;
56069;PMS5003;41944;52.078;-0.058;2024-01-06T06:08:37;5;5;
56069;PMS5003;41944;52.078;-0.058;2024-01-06T06:11:06;9;7;
56069;PMS5003;41944;52.078;-0.058;2024-01-06T06:13:33;7;6;
56069;PMS5003;41944;52.078;-0.058;2024-01-06T06:16:00;7;7;
56069;PMS5003;41944;52.078;-0.058;2024-01-06T06:18:27;9;7;
56069;PMS5003;41944;52.078;-0.058;2024-01-06T06:20:54;8;5;
56069;PMS5003;41944;52.078;-0.058;2024-01-06T06:23:21;9;5;
56069;PMS5003;41944;52.078;-0.058;2024-01-06T06:25:48;8;5;
56069;PMS5003;41944;52.078;-0.058;2024-01-06T06:28:15;6;6;
56069;PMS5003;41944;52.078;-0.058;2024-01-06T06:30:42;3;3;
56069;PMS5003;41944;52.078;-0.058;2024-01-06T06:33:09;6;6;
56069;PMS5003;41944;52.078;-0.058;2024-01-06T06:35:36;7;4;
56069;PMS5003;41944;52.078;-0.058;2024-01-06T06:38:03;7;6;
56069;PMS5003;41944;52.078;-0.058;2024-01-06T06:40:29;10;10;
56069;PMS5003;41944;52.078;-0.058;2024-01-06T06:42:56;9;7;
56069;PMS5003;41944;52.078;-0.058;2024-01-06T06:45:23;5;5;
56069;PMS5003;41944;52.078;-0.058;2024-01-06T06:47:50;6;6;
56069;PMS5003;41944;52.078;-0.058;2024-01-06T06:50:18;7;6;
56069;PMS5003;41944;52.078;-0.058;2024-01-06T06:52:45;11;10;
56069;PMS5003;41944;52.078;-0.058;2024-01-06T06:55:12;5;5;
56069;PMS5003;41944;52.078;-0.058;2024-01-06T06:57:39;10;10;
56069;PMS5003;41944;52.078;-0.058;2024-01-06T07:00:07;7;7;
56069;PMS5003;41944;52.078;-0.058;2024-01-06T07:02:34;7;7;
56069;PMS5003;41944;52.078;-0.058;2024-01-06T07:05:01;9;8;
56069;PMS5003;41944;52.078;-0.058;2024-01-06T07:07:28;7;7;
56069;PMS5003;41944;52.078;-0.058;2024-01-06T07:09:55;9;7;
56069;PMS5003;41944;52.078;-0.058;2024-01-06T07:12:22;4;4;
56069;PMS5003;41944;52.078;-0.058;2024-01-06T07:14:49;7;6;
56069;PMS5003;41944;52.078;-0.058;2024-01-06T07:17:16;5;5;
56069;PMS5003;41944;52.078;-0.058;2024-01-06T07:19:42;7;6;
56069;PMS5003;41944;52.078;-0.058;2024-01-06T07:22:09;8;7;
56069;PMS5003;41944;52.078;-0.058;2024-01-06T07:24:36;6;6;
56069;PMS5003;41944;52.078;-0.058;2024-01-06T07:27:03;5;5;
56069;PMS5003;41944;52.078;-0.058;2024-01-06T07:29:30;5;5;
56069;PMS5003;41944;52.078;-0.058;2024-01-06T07:31:57;7;5;
56069;PMS5003;41944;52.078;-0.058;2024-01-06T07:34:24;6;5;
56069;PMS5003;41944;52.078;-0.058;2024-01-06T07:36:51;8;6;
56069;PMS5003;41944;52.078;-0.058;2024-01-06T07:39:18;3;2;
56069;PMS5003;41944;52.078;-0.058;2024-01-06T07:41:45;5;4;
56069;PMS5003;41944;52.078;-0.058;2024-01-06T07:44:11;9;3;
56069;PMS5003;41944;52.078;-0.058;2024-01-06T07:46:38;3;3;
56069;PMS5003;41944;52.078;-0.058;2024-01-06T07:49:05;8;7;
56069;PMS5003;41944;52.078;-0.058;2024-01-06T07:51:32;5;5;
56069;PMS5003;41944;52.078;-0.058;2024-01-06T07:53:59;2;2;
56069;PMS5003;41944;52.078;-0.058;2024-01-06T07:56:27;4;2;
56069;PMS5003;41944;52.078;-0.058;2024-01-06T07:58:54;3;2;
56069;PMS5003;41944;52.078;-0.058;2024-01-06T08:01:21;2;1;
56069;PMS5003;41944;52.078;-0.058;2024-01-06T08:03:48;4;2;
56069;PMS5003;41944;52.078;-0.058;2024-01-06T08:06:14;1;1;
56069;PMS5003;41944;52.078;-0.058;2024-01-06T08:08:41;3;3;
56069;PMS5003;41944;52.078;-0.058;2024-01-06T08:11:08;2;2;
56069;PMS5003;41944;52.078;-0.058;2024-01-06T08:13:35;5;5;
56069;PMS5003;41944;52.078;-0.058;2024-01-06T08:16:02;5;4;
56069;PMS5003;41944;52.078;-0.058;2024-01-06T08:18:30;6;4;
56069;PMS5003;41944;52.078;-0.058;2024-01-06T08:20:57;3;3;
56069;PMS5003;41944;52.078;-0.058;2024-01-06T08:23:24;5;3;
56069;PMS5003;41944;52.078;-0.058;2024-01-06T08:25:51;6;4;
56069;PMS5003;41944;52.078;-0.058;2024-01-06T08:28:18;6;6;
56069;PMS5003;41944;52.078;-0.058;2024-01-06T08:30:44;6;6;
56069;PMS5003;41944;52.078;-0.058;2024-01-06T08:33:11;5;4;
56069;PMS5003;41944;52.078;-0.058;2024-01-06T08:35:38;7;6;
56069;PMS5003;41944;52.078;-0.058;2024-01-06T08:38:05;6;6;
56069;PMS5003;41944;52.078;-0.058;2024-01-06T08:40:32;8;8;
56069;PMS5003;41944;52.078;-0.058;2024-01-06T08:42:59;5;5;
56069;PMS5003;41944;52.078;-0.058;2024-01-06T08:45:27;8;6;
56069;PMS5003;41944;52.078;-0.058;2024-01-06T08:47:54;7;7;
56069;PMS5003;41944;52.078;-0.058;2024-01-06T08:50:21;5;5;
56069;PMS5003;41944;52.078;-0.058;2024-01-06T08:52:48;7;7;
56069;PMS5003;41944;52.078;-0.058;2024-01-06T08:55:15;8;6;
56069;PMS5003;41944;52.078;-0.058;2024-01-06T08:57:42;8;6;
56069;PMS5003;41944;52.078;-0.058;2024-01-06T09:00:09;22;22;
56069;PMS5003;41944;52.078;-0.058;2024-01-06T09:02:37;8;6;
56069;PMS5003;41944;52.078;-0.058;2024-01-06T09:05:04;8;7;
56069;PMS5003;41944;52.078;-0.058;2024-01-06T09:07:31;10;8;
56069;PMS5003;41944;52.078;-0.058;2024-01-06T09:09:58;8;8;
56069;PMS5003;41944;52.078;-0.058;2024-01-06T09:12:26;8;8;
56069;PMS5003;41944;52.078;-0.058;2024-01-06T09:14:53;9;8;
56069;PMS5003;41944;52.078;-0.058;2024-01-06T09:17:19;9;9;
56069;PMS5003;41944;52.078;-0.058;2024-01-06T09:19:46;12;12;
56069;PMS5003;41944;52.078;-0.058;2024-01-06T09:22:14;9;9;
56069;PMS5003;41944;52.078;-0.058;2024-01-06T09:24:41;10;8;
56069;PMS5003;41944;52.078;-0.058;2024-01-06T09:27:07;10;9;
56069;PMS5003;41944;52.078;-0.058;2024-01-06T09:29:35;10;9;
56069;PMS5003;41944;52.078;-0.058;2024-01-06T09:32:02;7;7;
56069;PMS5003;41944;52.078;-0.058;2024-01-06T09:34:29;10;8;
56069;PMS5003;41944;52.078;-0.058;2024-01-06T09:36:57;9;8;
56069;PMS5003;41944;52.078;-0.058;2024-01-06T09:39:24;8;8;
56069;PMS5003;41944;52.078;-0.058;2024-01-06T09:41:51;15;10;
56069;PMS5003;41944;52.078;-0.058;2024-01-06T09:44:19;7;7;
56069;PMS5003;41944;52.078;-0.058;2024-01-06T09:46:46;8;8;
56069;PMS5003;41944;52.078;-0.058;2024-01-06T09:49:13;15;11;
56069;PMS5003;41944;52.078;-0.058;2024-01-06T09:51:40;9;9;
56069;PMS5003;41944;52.078;-0.058;2024-01-06T09:54:08;7;7;
56069;PMS5003;41944;52.078;-0.058;2024-01-06T09:56:36;11;9;
56069;PMS5003;41944;52.078;-0.058;2024-01-06T09:59:04;9;8;
56069;PMS5003;41944;52.078;-0.058;2024-01-06T10:01:30;9;8;
56069;PMS5003;41944;52.078;-0.058;2024-01-06T10:03:57;7;7;
56069;PMS5003;41944;52.078;-0.058;2024-01-06T10:06:25;10;8;
56069;PMS5003;41944;52.078;-0.058;2024-01-06T10:08:52;10;9;
56069;PMS5003;41944;52.078;-0.058;2024-01-06T10:11:20;11;10;
56069;PMS5003;41944;52.078;-0.058;2024-01-06T10:13:49;18;10;
56069;PMS5003;41944;52.078;-0.058;2024-01-06T10:16:17;10;10;
56069;PMS5003;41944;52.078;-0.058;2024-01-06T10:18:45;11;8;
56069;PMS5003;41944;52.078;-0.058;2024-01-06T10:21:12;10;8;
56069;PMS5003;41944;52.078;-0.058;2024-01-06T10:23:39;8;8;
56069;PMS5003;41944;52.078;-0.058;2024-01-06T10:26:06;11;10;
56069;PMS5003;41944;52.078;-0.058;2024-01-06T10:28:33;7;7;
56069;PMS5003;41944;52.078;-0.058;2024-01-06T10:31:00;10;9;
56069;PMS5003;41944;52.078;-0.058;2024-01-06T10:33:27;9;8;
56069;PMS5003;41944;52.078;-0.058;2024-01-06T10:35:54;12;8;
56069;PMS5003;41944;52.078;-0.058;2024-01-06T10:38:21;10;7;
56069;PMS5003;41944;52.078;-0.058;2024-01-06T10:40:55;10;7;
56069;PMS5003;41944;52.078;-0.058;2024-01-06T10:43:25;16;11;
56069;PMS5003;41944;52.078;-0.058;2024-01-06T10:45:53;11;9;
56069;PMS5003;41944;52.078;-0.058;2024-01-06T10:48:22;10;9;
56069;PMS5003;41944;52.078;-0.058;2024-01-06T10:50:51;8;8;
56069;PMS5003;41944;52.078;-0.058;2024-01-06T10:53:20;10;8;
56069;PMS5003;41944;52.078;-0.058;2024-01-06T10:55:48;10;9;
56069;PMS5003;41944;52.078;-0.058;2024-01-06T10:58:16;8;8;
56069;PMS5003;41944;52.078;-0.058;2024-01-06T11:00:43;10;9;
56069;PMS5003;41944;52.078;-0.058;2024-01-06T11:03:10;12;12;
56069;PMS5003;41944;52.078;-0.058;2024-01-06T11:05:40;8;7;
56069;PMS5003;41944;52.078;-0.058;2024-01-06T11:08:08;7;7;
56069;PMS5003;41944;52.078;-0.058;2024-01-06T11:10:36;13;10;
56069;PMS5003;41944;52.078;-0.058;2024-01-06T11:13:12;14;9;
56069;PMS5003;41944;52.078;-0.058;2024-01-06T11:15:40;16;16;
56069;PMS5003;41944;52.078;-0.058;2024-01-06T11:18:09;10;8;
56069;PMS5003;41944;52.078;-0.058;2024-01-06T11:21:31;7;7;
56069;PMS5003;41944;52.078;-0.058;2024-01-06T11:24:16;7;7;
56069;PMS5003;41944;52.078;-0.058;2024-01-06T11:26:45;8;7;
56069;PMS5003;41944;52.078;-0.058;2024-01-06T11:29:16;8;8;
56069;PMS5003;41944;52.078;-0.058;2024-01-06T11:31:44;8;6;
56069;PMS5003;41944;52.078;-0.058;2024-01-06T11:34:43;8;7;
56069;PMS5003;41944;52.078;-0.058;2024-01-06T11:37:14;5;5;
56069;PMS5003;41944;52.078;-0.058;2024-01-06T11:39:43;8;5;
56069;PMS5003;41944;52.078;-0.058;2024-01-06T11:42:10;6;5;
56069;PMS5003;41944;52.078;-0.058;2024-01-06T11:44:38;8;5;
56069;PMS5003;41944;52.078;-0.058;2024-01-06T11:47:08;6;5;
56069;PMS5003;41944;52.078;-0.058;2024-01-06T11:49:38;5;5;
56069;PMS5003;41944;52.078;-0.058;2024-01-06T11:52:05;8;5;
56069;PMS5003;41944;52.078;-0.058;2024-01-06T11:54:32;4;3;
56069;PMS5003;41944;52.078;-0.058;2024-01-06T11:57:00;5;5;
56069;PMS5003;41944;52.078;-0.058;2024-01-06T11:59:27;6;4;
56069;PMS5003;41944;52.078;-0.058;2024-01-06T12:01:54;5;3;
56069;PMS5003;41944;52.078;-0.058;2024-01-06T12:04:21;3;3;
56069;PMS5003;41944;52.078;-0.058;2024-01-06T12:06:48;3;3;
56069;PMS5003;41944;52.078;-0.058;2024-01-06T12:09:16;2;2;
56069;PMS5003;41944;52.078;-0.058;2024-01-06T12:11:43;3;3;
56069;PMS5003;41944;52.078;-0.058;2024-01-06T12:14:10;5;4;
56069;PMS5003;41944;52.078;-0.058;2024-01-06T12:16:37;6;6;
56069;PMS5003;41944;52.078;-0.058;2024-01-06T12:19:04;7;5;
56069;PMS5003;41944;52.078;-0.058;2024-01-06T12:21:31;8;7;
56069;PMS5003;41944;52.078;-0.058;2024-01-06T12:24:12;10;8;
56069;PMS5003;41944;52.078;-0.058;2024-01-06T12:26:40;7;7;
56069;PMS5003;41944;52.078;-0.058;2024-01-06T12:29:07;9;7;
56069;PMS5003;41944;52.078;-0.058;2024-01-06T12:31:35;7;7;
56069;PMS5003;41944;52.078;-0.058;2024-01-06T12:34:02;9;6;
56069;PMS5003;41944;52.078;-0.058;2024-01-06T12:36:29;9;5;
56069;PMS5003;41944;52.078;-0.058;2024-01-06T12:38:57;7;7;
56069;PMS5003;41944;52.078;-0.058;2024-01-06T12:41:24;4;4;
56069;PMS5003;41944;52.078;-0.058;2024-01-06T12:43:50;7;6;
56069;PMS5003;41944;52.078;-0.058;2024-01-06T12:46:17;7;7;
56069;PMS5003;41944;52.078;-0.058;2024-01-06T12:48:44;6;6;
56069;PMS5003;41944;52.078;-0.058;2024-01-06T12:51:11;10;5;
56069;PMS5003;41944;52.078;-0.058;2024-01-06T12:53:38;8;7;
56069;PMS5003;41944;52.078;-0.058;2024-01-06T12:56:05;8;7;
56069;PMS5003;41944;52.078;-0.058;2024-01-06T12:58:33;6;6;
56069;PMS5003;41944;52.078;-0.058;2024-01-06T13:01:00;6;5;
56069;PMS5003;41944;52.078;-0.058;2024-01-06T13:03:27;7;7;
56069;PMS5003;41944;52.078;-0.058;2024-01-06T13:05:55;5;5;
56069;PMS5003;41944;52.078;-0.058;2024-01-06T13:08:22;7;6;
56069;PMS5003;41944;52.078;-0.058;2024-01-06T13:10:48;8;8;
56069;PMS5003;41944;52.078;-0.058;2024-01-06T13:13:16;5;5;
56069;PMS5003;41944;52.078;-0.058;2024-01-06T13:15:43;7;6;
56069;PMS5003;41944;52.078;-0.058;2024-01-06T13:18:10;11;6;
56069;PMS5003;41944;52.078;-0.058;2024-01-06T13:20:37;8;7;
56069;PMS5003;41944;52.078;-0.058;2024-01-06T13:23:04;8;8;
56069;PMS5003;41944;52.078;-0.058;2024-01-06T13:25:30;8;8;
56069;PMS5003;41944;52.078;-0.058;2024-01-06T13:27:57;12;10;
56069;PMS5003;41944;52.078;-0.058;2024-01-06T13:30:24;11;10;
56069;PMS5003;41944;52.078;-0.058;2024-01-06T13:32:51;14;13;
56069;PMS5003;41944;52.078;-0.058;2024-01-06T13:35:18;10;8;
56069;PMS5003;41944;52.078;-0.058;2024-01-06T13:37:45;8;8;
56069;PMS5003;41944;52.078;-0.058;2024-01-06T13:40:13;11;11;
56069;PMS5003;41944;52.078;-0.058;2024-01-06T13:42:40;8;7;
56069;PMS5003;41944;52.078;-0.058;2024-01-06T13:45:07;10;8;
56069;PMS5003;41944;52.078;-0.058;2024-01-06T13:47:35;9;9;
56069;PMS5003;41944;52.078;-0.058;2024-01-06T13:50:02;9;7;
56069;PMS5003;41944;52.078;-0.058;2024-01-06T13:52:28;8;8;
56069;PMS5003;41944;52.078;-0.058;2024-01-06T13:54:55;9;7;
56069;PMS5003;41944;52.078;-0.058;2024-01-06T13:57:22;9;9;
56069;PMS5003;41944;52.078;-0.058;2024-01-06T13:59:49;11;10;
56069;PMS5003;41944;52.078;-0.058;2024-01-06T14:02:17;15;13;
56069;PMS5003;41944;52.078;-0.058;2024-01-06T14:04:44;10;9;
56069;PMS5003;41944;52.078;-0.058;2024-01-06T14:07:11;13;9;
56069;PMS5003;41944;52.078;-0.058;2024-01-06T14:09:38;10;8;
56069;PMS5003;41944;52.078;-0.058;2024-01-06T14:12:05;9;8;
56069;PMS5003;41944;52.078;-0.058;2024-01-06T14:14:33;8;8;
56069;PMS5003;41944;52.078;-0.058;2024-01-06T14:17:00;9;8;
56069;PMS5003;41944;52.078;-0.058;2024-01-06T14:19:27;6;6;
56069;PMS5003;41944;52.078;-0.058;2024-01-06T14:21:54;12;9;
56069;PMS5003;41944;52.078;-0.058;2024-01-06T14:24:21;9;8;
56069;PMS5003;41944;52.078;-0.058;2024-01-06T14:26:48;7;7;
56069;PMS5003;41944;52.078;-0.058;2024-01-06T14:29:15;6;6;
56069;PMS5003;41944;52.078;-0.058;2024-01-06T14:31:43;8;7;
56069;PMS5003;41944;52.078;-0.058;2024-01-06T14:34:10;8;8;
56069;PMS5003;41944;52.078;-0.058;2024-01-06T14:36:37;8;7;
56069;PMS5003;41944;52.078;-0.058;2024-01-06T14:39:04;5;5;
56069;PMS5003;41944;52.078;-0.058;2024-01-06T14:41:31;6;5;
56069;PMS5003;41944;52.078;-0.058;2024-01-06T14:43:57;10;7;
56069;PMS5003;41944;52.078;-0.058;2024-01-06T14:46:24;5;5;
56069;PMS5003;41944;52.078;-0.058;2024-01-06T14:48:52;12;11;
56069;PMS5003;41944;52.078;-0.058;2024-01-06T14:51:19;9;9;
56069;PMS5003;41944;52.078;-0.058;2024-01-06T14:53:46;8;6;
56069;PMS5003;41944;52.078;-0.058;2024-01-06T14:56:13;7;5;
56069;PMS5003;41944;52.078;-0.058;2024-01-06T14:58:39;7;6;
56069;PMS5003;41944;52.078;-0.058;2024-01-06T15:01:06;6;6;
56069;PMS5003;41944;52.078;-0.058;2024-01-06T15:03:33;5;5;
56069;PMS5003;41944;52.078;-0.058;2024-01-06T15:06:00;6;6;
56069;PMS5003;41944;52.078;-0.058;2024-01-06T15:08:28;9;8;
56069;PMS5003;41944;52.078;-0.058;2024-01-06T15:10:55;8;8;
56069;PMS5003;41944;52.078;-0.058;2024-01-06T15:13:23;6;6;
56069;PMS5003;41944;52.078;-0.058;2024-01-06T15:15:49;7;7;
56069;PMS5003;41944;52.078;-0.058;2024-01-06T15:18:16;10;9;
56069;PMS5003;41944;52.078;-0.058;2024-01-06T15:20:44;9;9;
56069;PMS5003;41944;52.078;-0.058;2024-01-06T15:23:11;11;9;
56069;PMS5003;41944;52.078;-0.058;2024-01-06T15:25:38;8;8;
56069;PMS5003;41944;52.078;-0.058;2024-01-06T15:28:05;11;9;
56069;PMS5003;41944;52.078;-0.058;2024-01-06T15:30:33;6;6;
56069;PMS5003;41944;52.078;-0.058;2024-01-06T15:33:00;7;7;
56069;PMS5003;41944;52.078;-0.058;2024-01-06T15:35:28;7;7;
56069;PMS5003;41944;52.078;-0.058;2024-01-06T15:37:54;12;10;
56069;PMS5003;41944;52.078;-0.058;2024-01-06T15:40:21;9;9;
56069;PMS5003;41944;52.078;-0.058;2024-01-06T15:42:48;12;9;
56069;PMS5003;41944;52.078;-0.058;2024-01-06T15:45:15;13;12;
56069;PMS5003;41944;52.078;-0.058;2024-01-06T15:47:42;18;12;
56069;PMS5003;41944;52.078;-0.058;2024-01-06T15:50:09;18;15;
56069;PMS5003;41944;52.078;-0.058;2024-01-06T15:52:36;13;13;
56069;PMS5003;41944;52.078;-0.058;2024-01-06T15:55:04;16;16;
56069;PMS5003;41944;52.078;-0.058;2024-01-06T15:57:31;12;12;
56069;PMS5003;41944;52.078;-0.058;2024-01-06T15:59:58;13;9;
56069;PMS5003;41944;52.078;-0.058;2024-01-06T16:02:26;11;9;
56069;PMS5003;41944;52.078;-0.058;2024-01-06T16:04:53;8;7;
56069;PMS5003;41944;52.078;-0.058;2024-01-06T16:07:20;11;9;
56069;PMS5003;41944;52.078;-0.058;2024-01-06T16:09:47;12;8;
56069;PMS5003;41944;52.078;-0.058;2024-01-06T16:12:13;8;7;
56069;PMS5003;41944;52.078;-0.058;2024-01-06T16:14:40;8;8;
56069;PMS5003;41944;52.078;-0.058;2024-01-06T16:17:07;7;6;
56069;PMS5003;41944;52.078;-0.058;2024-01-06T16:19:34;8;7;
56069;PMS5003;41944;52.078;-0.058;2024-01-06T16:22:01;9;8;
56069;PMS5003;41944;52.078;-0.058;2024-01-06T16:24:28;9;9;